Time;durP1;ratioP1;P1;durP2;ratioP2;P2;SDS_P1;SDS_P2;PMS_P1;PMS_P2;Temp;Humidity;BMP_temperature;BMP_pressure;BME280_temperature;BME280_humidity;BME280_pressure;Samples;Min_cycle;Max_cycle;Signal;HPM_P1;HPM_P2
2022/06/12 00:00:44;;;;;;;9.73;7.50;;;13.80;99.90;;;;;;5095227;28;20227;-71
2022/06/12 00:03:14;;;;;;;9.70;7.37;;;13.90;99.90;;;;;;5095291;28;20203;-73
2022/06/12 00:05:45;;;;;;;8.43;6.70;;;13.80;99.90;;;;;;5095182;28;20196;-74
2022/06/12 00:08:11;;;;;;;8.13;6.90;;;13.80;99.90;;;;;;5095107;28;20250;-73
2022/06/12 00:10:40;;;;;;;7.87;7.17;;;13.80;99.90;;;;;;5094951;28;20204;-73
2022/06/12 00:13:10;;;;;;;7.43;6.73;;;13.70;99.90;;;;;;5095164;28;20204;-73
2022/06/12 00:15:37;;;;;;;8.03;6.37;;;13.80;99.90;;;;;;5095024;28;20200;-73
2022/06/12 00:18:04;;;;;;;7.87;7.10;;;13.90;99.90;;;;;;5094900;28;20273;-73
2022/06/12 00:20:31;;;;;;;7.40;6.40;;;13.90;99.90;;;;;;5094742;28;20224;-73
2022/06/12 00:22:59;;;;;;;8.83;6.47;;;13.90;99.90;;;;;;5094691;28;20253;-73
2022/06/12 00:25:30;;;;;;;10.40;6.97;;;13.90;99.90;;;;;;5094894;28;20200;-73
2022/06/12 00:27:57;;;;;;;7.80;7.00;;;13.80;99.90;;;;;;5094532;28;20290;-73
2022/06/12 00:30:26;;;;;;;8.43;6.90;;;13.70;99.90;;;;;;5094555;28;20249;-73
2022/06/12 00:32:54;;;;;;;7.77;6.93;;;13.70;99.90;;;;;;5094656;28;20258;-71
2022/06/12 00:35:23;;;;;;;8.53;6.53;;;13.80;99.90;;;;;;5094533;28;20207;-73
2022/06/12 00:37:50;;;;;;;8.00;6.57;;;13.80;99.90;;;;;;5094423;28;20203;-71
2022/06/12 00:40:18;;;;;;;7.27;6.57;;;13.70;99.90;;;;;;5094326;28;20278;-74
2022/06/12 00:42:48;;;;;;;9.20;6.97;;;13.80;99.90;;;;;;5094463;28;20196;-71
2022/06/12 00:45:37;;;;;;;9.30;6.93;;;13.70;99.90;;;;;;5094394;28;20204;-72
2022/06/12 00:48:08;;;;;;;7.50;6.80;;;13.50;99.90;;;;;;5093699;28;20235;-72
2022/06/12 00:50:37;;;;;;;10.30;7.30;;;13.40;99.90;;;;;;5094481;28;20204;-72
2022/06/12 00:53:06;;;;;;;9.07;7.67;;;13.30;99.90;;;;;;5094404;28;20238;-72
2022/06/12 00:55:40;;;;;;;8.80;7.47;;;13.40;99.90;;;;;;5094175;28;20196;-71
2022/06/12 00:58:10;;;;;;;13.10;8.20;;;13.50;99.90;;;;;;5094207;28;20196;-72
2022/06/12 01:00:39;;;;;;;12.90;8.03;;;13.60;99.90;;;;;;5093914;28;20739;-71
2022/06/12 01:03:07;;;;;;;13.70;7.63;;;13.50;99.90;;;;;;5094198;28;20541;-71
2022/06/12 01:08:20;;;;;;;13.20;8.40;;;13.20;99.90;;;;;;5094110;28;20293;-71
2022/06/12 01:10:50;;;;;;;15.50;8.80;;;13.10;99.90;;;;;;5093678;28;20196;-71
2022/06/12 01:13:20;;;;;;;20.57;9.37;;;13.00;99.90;;;;;;5093707;28;20660;-71
2022/06/12 01:15:51;;;;;;;15.10;9.67;;;12.90;99.90;;;;;;5094089;28;20250;-71
2022/06/12 01:18:21;;;;;;;11.40;9.60;;;12.80;99.90;;;;;;5094516;28;20200;-71
2022/06/12 01:20:54;;;;;;;11.40;8.80;;;12.70;99.90;;;;;;5094101;28;20807;-71
2022/06/12 01:23:51;;;;;;;10.43;8.93;;;12.70;99.90;;;;;;5096246;28;20250;-71
2022/06/12 01:26:52;;;;;;;14.53;8.73;;;12.90;99.90;;;;;;5097164;28;20736;-71
2022/06/12 01:29:26;;;;;;;14.43;9.50;;;12.80;99.90;;;;;;5095033;28;20195;-72
2022/06/12 01:32:01;;;;;;;16.57;9.33;;;12.60;99.90;;;;;;5094348;28;20249;-71
2022/06/12 01:34:36;;;;;;;17.30;9.20;;;12.50;99.90;;;;;;5093704;28;20199;-71
2022/06/12 01:37:19;;;;;;;12.97;9.67;;;12.50;99.90;;;;;;5093463;28;20207;-72
2022/06/12 01:39:53;;;;;;;14.50;9.30;;;12.50;99.90;;;;;;5093432;28;20246;-71
2022/06/12 01:42:26;;;;;;;11.03;9.60;;;12.70;99.90;;;;;;5093281;28;20257;-71
2022/06/12 01:45:06;;;;;;;15.53;9.23;;;12.80;99.90;;;;;;5093460;28;20203;-72
2022/06/12 01:47:41;;;;;;;17.57;9.87;;;12.70;99.90;;;;;;5093053;28;20237;-71
2022/06/12 01:50:15;;;;;;;12.47;9.30;;;12.70;99.90;;;;;;5093508;28;20199;-71
2022/06/12 01:52:53;;;;;;;13.33;9.03;;;12.80;99.90;;;;;;5093100;28;20552;-71
2022/06/12 01:55:34;;;;;;;14.13;8.70;;;12.80;99.90;;;;;;5093248;28;20200;-71
2022/06/12 01:58:08;;;;;;;12.37;9.63;;;12.80;99.90;;;;;;5093199;28;20200;-71
2022/06/12 02:00:38;;;;;;;10.30;8.73;;;12.70;99.90;;;;;;5092289;28;20565;-71
2022/06/12 02:03:11;;;;;;;12.30;9.90;;;12.50;99.90;;;;;;5092784;28;20632;-71
2022/06/12 02:05:45;;;;;;;13.07;9.63;;;12.50;99.90;;;;;;5092887;28;20674;-71
2022/06/12 02:08:22;;;;;;;13.50;9.47;;;12.50;99.90;;;;;;5092982;28;20229;-71
2022/06/12 02:10:51;;;;;;;11.73;9.63;;;12.50;99.90;;;;;;5093499;28;20647;-71
2022/06/12 02:13:23;;;;;;;13.63;9.40;;;12.50;99.90;;;;;;5093845;28;20196;-71
2022/06/12 02:15:57;;;;;;;12.00;9.70;;;12.30;99.90;;;;;;5092987;28;20204;-72
2022/06/12 02:18:31;;;;;;;11.03;9.03;;;12.20;99.90;;;;;;5092756;28;20722;-73
2022/06/12 02:21:04;;;;;;;10.40;9.30;;;12.10;99.90;;;;;;5092867;28;20212;-72
2022/06/12 02:23:40;;;;;;;11.73;9.67;;;12.10;99.90;;;;;;5093080;28;20207;-72
2022/06/12 02:26:11;;;;;;;14.60;9.63;;;12.00;99.90;;;;;;5092934;28;20200;-72
2022/06/12 02:28:41;;;;;;;9.93;8.93;;;12.00;99.90;;;;;;5093064;28;20192;-72
2022/06/12 02:31:14;;;;;;;10.33;9.10;;;11.90;99.90;;;;;;5092112;28;20223;-72
2022/06/12 02:33:44;;;;;;;10.80;9.70;;;11.90;99.90;;;;;;5092862;28;20705;-72
2022/06/12 02:36:18;;;;;;;15.13;10.07;;;11.80;99.90;;;;;;5092860;28;20236;-73
2022/06/12 02:38:49;;;;;;;11.97;9.57;;;11.80;99.90;;;;;;5093082;28;20262;-72
2022/06/12 02:41:23;;;;;;;12.73;10.20;;;11.70;99.90;;;;;;5092558;28;20638;-72
2022/06/12 02:43:54;;;;;;;15.27;10.70;;;11.60;99.90;;;;;;5092731;28;20199;-73
2022/06/12 02:46:28;;;;;;;16.50;10.80;;;11.60;99.90;;;;;;5092540;28;20571;-72
2022/06/12 02:48:54;;;;;;;15.07;10.87;;;11.50;99.90;;;;;;5092304;28;20633;-72
2022/06/12 02:51:31;;;;;;;14.03;10.83;;;11.50;99.90;;;;;;5092685;28;20273;-72
2022/06/12 02:54:05;;;;;;;14.27;10.70;;;11.50;99.90;;;;;;5092577;28;20200;-72
2022/06/12 02:56:40;;;;;;;17.20;11.80;;;11.40;99.90;;;;;;5092608;28;20196;-72
2022/06/12 02:59:20;;;;;;;16.10;11.23;;;11.50;99.90;;;;;;5092647;28;20597;-72
2022/06/12 03:01:55;;;;;;;15.27;11.33;;;11.40;99.90;;;;;;5092511;28;20263;-72
2022/06/12 03:04:28;;;;;;;16.57;12.10;;;11.40;99.90;;;;;;5092871;28;20257;-72
2022/06/12 03:06:55;;;;;;;16.23;11.70;;;11.50;99.90;;;;;;5092925;28;20246;-72
2022/06/12 03:09:22;;;;;;;15.80;11.50;;;11.60;99.90;;;;;;5092660;28;20253;-72
2022/06/12 03:11:50;;;;;;;15.30;12.17;;;11.60;99.90;;;;;;5093914;28;20196;-72
2022/06/12 03:14:21;;;;;;;13.90;11.53;;;11.70;99.90;;;;;;5096467;28;20200;-72
2022/06/12 03:16:50;;;;;;;13.30;11.70;;;11.70;99.90;;;;;;5096297;28;20196;-71
2022/06/12 03:19:20;;;;;;;22.03;12.17;;;11.90;99.90;;;;;;5096088;28;20601;-71
2022/06/12 03:21:53;;;;;;;15.87;11.40;;;11.90;99.90;;;;;;5095980;28;20220;-71
2022/06/12 03:24:47;;;;;;;13.13;11.77;;;11.80;99.90;;;;;;5095925;28;20620;-71
2022/06/12 03:27:31;;;;;;;14.20;11.50;;;11.80;99.90;;;;;;5060077;28;20234;-72
2022/06/12 03:30:05;;;;;;;16.90;11.37;;;11.80;99.90;;;;;;5095758;28;20242;-71
2022/06/12 03:32:42;;;;;;;11.67;10.40;;;11.90;99.90;;;;;;5095803;28;20204;-71
2022/06/12 03:35:18;;;;;;;16.97;10.80;;;12.00;99.90;;;;;;5096056;28;20200;-71
2022/06/12 03:37:54;;;;;;;14.93;10.53;;;12.00;99.90;;;;;;5095799;28;20281;-71
2022/06/12 03:40:27;;;;;;;12.20;10.63;;;12.00;99.90;;;;;;5095730;28;20196;-70
2022/06/12 03:42:59;;;;;;;11.17;10.07;;;11.90;99.90;;;;;;5095479;28;20220;-71
2022/06/12 03:45:32;;;;;;;13.80;10.57;;;12.00;99.90;;;;;;5095782;28;20188;-71
2022/06/12 03:48:10;;;;;;;12.47;9.60;;;12.00;99.90;;;;;;5095365;28;20236;-71
2022/06/12 03:50:42;;;;;;;13.23;10.07;;;11.90;99.90;;;;;;5095432;28;20527;-71
2022/06/12 03:53:17;;;;;;;11.00;9.50;;;11.90;99.90;;;;;;5095461;28;20200;-71
2022/06/12 03:58:43;;;;;;;10.67;9.57;;;12.00;99.90;;;;;;5095269;28;20196;-71
2022/06/12 04:01:10;;;;;;;10.40;9.37;;;12.10;99.90;;;;;;5095197;28;20219;-71
2022/06/12 04:03:42;;;;;;;9.73;8.70;;;12.20;99.90;;;;;;5095245;28;20254;-71
2022/06/12 04:06:13;;;;;;;11.63;9.57;;;12.30;99.90;;;;;;5095069;28;20239;-71
2022/06/12 04:08:44;;;;;;;11.10;9.30;;;12.40;99.90;;;;;;5095265;28;20211;-71
2022/06/12 04:11:13;;;;;;;12.07;9.60;;;12.40;99.90;;;;;;5095242;28;20296;-72
2022/06/12 04:13:41;;;;;;;12.27;9.03;;;12.50;99.90;;;;;;5095295;28;20205;-71
2022/06/12 04:16:20;;;;;;;12.60;9.13;;;12.70;99.90;;;;;;5094950;28;20249;-71
2022/06/12 04:18:49;;;;;;;10.17;7.93;;;12.70;99.90;;;;;;5094875;28;20200;-71
2022/06/12 04:21:24;;;;;;;12.17;8.47;;;12.80;99.90;;;;;;5094982;28;20301;-71
2022/06/12 04:24:10;;;;;;;10.27;8.93;;;12.80;99.90;;;;;;5094443;28;20200;-71
2022/06/12 04:26:39;;;;;;;9.43;8.17;;;12.90;99.90;;;;;;5095038;28;20196;-71
2022/06/12 04:29:20;;;;;;;10.83;8.77;;;13.00;99.90;;;;;;5095176;28;20196;-71
2022/06/12 04:31:50;;;;;;;9.07;8.13;;;13.10;99.90;;;;;;5112876;28;20196;-70
2022/06/12 04:34:22;;;;;;;11.30;8.40;;;13.10;99.90;;;;;;5111238;28;20196;-72
2022/06/12 04:36:51;;;;;;;9.13;8.17;;;13.30;99.90;;;;;;5112381;28;20226;-71
2022/06/12 04:39:21;;;;;;;11.17;8.57;;;13.30;99.90;;;;;;5105937;28;20284;-71
2022/06/12 04:41:48;;;;;;;9.63;8.63;;;13.40;99.90;;;;;;5105333;28;20258;-71
2022/06/12 04:44:15;;;;;;;8.57;7.73;;;13.50;99.90;;;;;;5109563;28;20606;-71
2022/06/12 04:46:44;;;;;;;10.53;8.03;;;13.60;99.90;;;;;;5097115;28;20249;-72
2022/06/12 04:49:14;;;;;;;11.03;8.60;;;13.80;99.90;;;;;;5094118;28;20232;-72
2022/06/12 04:51:43;;;;;;;11.53;8.27;;;13.80;99.90;;;;;;5094574;28;20250;-71
2022/06/12 04:54:09;;;;;;;10.20;8.13;;;14.00;99.90;;;;;;5094331;28;20204;-71
2022/06/12 04:56:36;;;;;;;9.73;8.00;;;14.10;99.90;;;;;;5094139;28;20746;-71
2022/06/12 04:59:04;;;;;;;11.23;8.50;;;14.20;99.90;;;;;;5094165;28;20257;-71
2022/06/12 05:01:32;;;;;;;9.43;8.27;;;14.30;99.90;;;;;;5093814;28;20220;-73
2022/06/12 05:03:59;;;;;;;9.93;8.20;;;14.40;99.90;;;;;;5094044;28;20196;-72
2022/06/12 05:06:27;;;;;;;8.50;7.70;;;14.50;99.90;;;;;;5093891;28;20555;-72
2022/06/12 05:08:55;;;;;;;9.00;7.73;;;14.60;99.90;;;;;;5094090;28;20200;-72
2022/06/12 05:11:23;;;;;;;8.30;7.60;;;14.80;99.90;;;;;;5093965;28;20200;-72
2022/06/12 05:13:50;;;;;;;10.30;8.07;;;14.80;99.90;;;;;;5093814;28;20253;-72
2022/06/12 05:16:26;;;;;;;10.87;8.13;;;15.00;99.90;;;;;;5093687;28;20541;-72
2022/06/12 05:18:53;;;;;;;9.03;8.13;;;15.10;99.90;;;;;;5093633;28;20199;-72
2022/06/12 05:21:20;;;;;;;8.90;7.57;;;15.20;99.90;;;;;;5093770;28;20204;-72
2022/06/12 05:23:46;;;;;;;8.63;7.05;;;15.30;99.90;;;;;;5093769;28;20196;-72
2022/06/12 05:26:17;;;;;;;9.85;7.20;;;15.40;99.90;;;;;;5093660;28;20204;-72
2022/06/12 05:28:46;;;;;;;9.25;7.35;;;15.50;99.90;;;;;;5095152;28;20249;-71
2022/06/12 05:31:13;;;;;;;9.20;7.03;;;15.60;99.90;;;;;;5093668;28;20199;-72
2022/06/12 05:33:40;;;;;;;9.02;7.63;;;15.70;99.90;;;;;;5093389;28;20204;-72
2022/06/12 05:36:07;;;;;;;7.25;6.55;;;15.80;99.90;;;;;;5093283;28;20713;-72
2022/06/12 05:38:35;;;;;;;7.72;6.95;;;16.00;99.90;;;;;;5093441;28;20253;-72
2022/06/12 05:41:02;;;;;;;8.13;7.15;;;16.10;99.90;;;;;;5093322;28;20204;-72
2022/06/12 05:43:30;;;;;;;7.40;6.70;;;16.20;99.90;;;;;;5093426;28;20663;-72
2022/06/12 05:45:57;;;;;;;8.40;6.47;;;16.40;99.90;;;;;;5093116;28;20261;-72
2022/06/12 05:48:24;;;;;;;7.97;7.00;;;16.50;99.90;;;;;;5093133;28;20323;-72
2022/06/12 05:50:53;;;;;;;10.38;6.35;;;16.60;99.90;;;;;;5093061;28;20591;-72
2022/06/12 05:53:23;;;;;;;8.68;6.15;;;16.70;99.90;;;;;;5093051;28;20718;-72
2022/06/12 05:55:49;;;;;;;6.63;6.00;;;16.80;99.90;;;;;;5093009;28;20560;-72
2022/06/12 05:58:17;;;;;;;8.68;6.78;;;17.00;99.90;;;;;;5093027;28;20203;-72
2022/06/12 06:00:46;;;;;;;6.15;5.40;;;17.20;99.90;;;;;;5092893;28;20652;-72
2022/06/12 06:03:13;;;;;;;6.70;5.93;;;17.30;99.90;;;;;;5093091;28;20228;-72
2022/06/12 06:05:41;;;;;;;6.28;5.65;;;17.40;99.90;;;;;;5092868;28;20204;-72
2022/06/12 06:08:08;;;;;;;8.85;5.90;;;17.60;99.90;;;;;;5092976;28;20207;-72
2022/06/12 06:10:36;;;;;;;5.90;5.30;;;17.70;99.90;;;;;;5092901;28;20243;-72
2022/06/12 06:13:03;;;;;;;6.10;5.50;;;17.90;99.90;;;;;;5092745;28;20208;-72
2022/06/12 06:15:29;;;;;;;5.43;4.93;;;17.90;99.90;;;;;;5092967;28;20200;-72
2022/06/12 06:17:57;;;;;;;5.43;4.95;;;18.10;99.90;;;;;;5092971;28;20254;-72
2022/06/12 06:20:27;;;;;;;6.75;4.95;;;18.30;99.90;;;;;;5092854;28;20200;-72
2022/06/12 06:22:54;;;;;;;5.95;5.03;;;18.50;99.90;;;;;;5092644;28;20760;-73
2022/06/12 06:25:23;;;;;;;5.57;4.78;;;18.60;99.90;;;;;;5092756;28;20196;-73
2022/06/12 06:27:50;;;;;;;5.20;4.70;;;18.80;99.90;;;;;;5092652;28;20200;-71
2022/06/12 06:30:17;;;;;;;5.65;5.10;;;19.00;99.90;;;;;;5092399;28;20708;-72
2022/06/12 06:32:44;;;;;;;5.20;4.70;;;19.20;99.90;;;;;;5092842;28;20204;-72
2022/06/12 06:35:13;;;;;;;5.60;4.85;;;19.30;99.90;;;;;;5092419;28;20196;-76
2022/06/12 06:37:40;;;;;;;5.88;4.93;;;19.50;99.90;;;;;;5092870;28;20200;-76
2022/06/12 06:40:09;;;;;;;4.50;4.10;;;19.60;99.90;;;;;;5092677;28;20254;-78
2022/06/12 06:42:36;;;;;;;5.22;4.43;;;19.70;99.90;;;;;;5092604;28;20609;-76
2022/06/12 06:48:03;;;;;;;7.22;4.32;;;20.10;99.90;;;;;;5059867;28;20588;-75
2022/06/12 06:50:32;;;;;;;8.07;4.32;;;20.10;99.90;;;;;;5074136;28;20216;-75
2022/06/12 06:53:00;;;;;;;6.47;4.05;;;20.30;99.90;;;;;;5084128;28;20204;-76
2022/06/12 06:55:29;;;;;;;5.88;4.30;;;20.50;99.90;;;;;;5096571;28;20287;-75
2022/06/12 06:57:57;;;;;;;4.72;4.05;;;20.70;99.90;;;;;;5093441;28;20673;-76
2022/06/12 07:00:27;;;;;;;4.15;3.85;;;20.90;99.90;;;;;;5091102;28;20279;-76
2022/06/12 07:02:54;;;;;;;4.90;3.90;;;21.00;99.90;;;;;;5093046;28;20691;-75
2022/06/12 07:05:21;;;;;;;4.35;3.95;;;21.20;99.90;;;;;;5095825;28;20663;-75
2022/06/12 07:07:49;;;;;;;4.10;3.70;;;21.30;99.90;;;;;;5096659;28;20238;-76
2022/06/12 07:10:21;;;;;;;4.82;3.35;;;21.50;99.90;;;;;;5095782;28;20725;-77
2022/06/12 07:12:49;;;;;;;5.15;3.78;;;21.80;99.90;;;;;;5096397;28;20200;-77
2022/06/12 07:15:16;;;;;;;3.83;2.75;;;22.00;99.90;;;;;;5092349;28;20224;-77
2022/06/12 07:17:45;;;;;;;3.95;2.90;;;22.00;99.90;;;;;;5096176;28;20249;-77
2022/06/12 07:20:16;;;;;;;5.60;2.55;;;22.00;99.90;;;;;;5093020;28;20559;-76
2022/06/12 07:22:42;;;;;;;3.80;2.72;;;22.10;99.90;;;;;;5095971;28;20270;-72
2022/06/12 07:25:12;;;;;;;4.88;2.70;;;22.30;99.90;;;;;;5096057;28;20614;-71
2022/06/12 07:27:40;;;;;;;6.65;2.92;;;22.50;99.90;;;;;;5095864;28;20196;-72
2022/06/12 07:30:10;;;;;;;3.35;2.47;;;22.60;99.90;;;;;;5095758;28;20197;-71
2022/06/12 07:32:37;;;;;;;5.55;2.95;;;22.70;99.90;;;;;;5096089;28;20196;-71
2022/06/12 07:35:05;;;;;;;3.63;3.00;;;22.70;99.90;;;;;;5096133;28;20192;-71
2022/06/12 07:37:32;;;;;;;3.60;2.70;;;22.80;99.90;;;;;;5096413;28;20228;-71
2022/06/12 07:40:00;;;;;;;3.88;2.97;;;22.90;99.90;;;;;;5106065;28;20180;-71
2022/06/12 07:42:28;;;;;;;3.00;2.72;;;22.90;99.90;;;;;;5118938;28;20228;-71
2022/06/12 07:44:55;;;;;;;4.90;2.53;;;23.00;99.90;;;;;;5117484;28;20815;-71
2022/06/12 07:47:21;;;;;;;5.13;2.70;;;23.20;98.10;;;;;;5119581;28;20180;-70
2022/06/12 07:49:48;;;;;;;3.45;2.47;;;23.30;99.00;;;;;;5110923;28;20189;-71
2022/06/12 07:52:15;;;;;;;4.00;2.50;;;23.40;98.70;;;;;;5106297;28;20261;-71
2022/06/12 07:54:42;;;;;;;3.10;2.45;;;23.40;96.60;;;;;;5095468;28;20207;-71
2022/06/12 07:57:09;;;;;;;6.18;2.70;;;23.40;95.00;;;;;;5094981;28;20204;-71
2022/06/12 07:59:37;;;;;;;6.15;2.67;;;23.50;93.20;;;;;;5094546;28;20200;-71
2022/06/12 08:02:05;;;;;;;5.60;2.80;;;23.70;92.30;;;;;;5094998;28;20593;-71
2022/06/12 08:04:32;;;;;;;3.30;2.75;;;23.80;91.40;;;;;;5095180;28;20200;-71
2022/06/12 08:06:59;;;;;;;3.58;2.42;;;24.00;90.80;;;;;;5095168;28;20204;-73
2022/06/12 08:09:27;;;;;;;4.07;2.40;;;24.00;87.60;;;;;;5094861;28;20227;-71
2022/06/12 08:11:54;;;;;;;3.88;2.65;;;24.10;90.80;;;;;;5094828;28;20245;-72
2022/06/12 08:14:22;;;;;;;5.88;2.80;;;24.30;87.10;;;;;;5095062;28;20204;-71
2022/06/12 08:16:51;;;;;;;5.10;2.97;;;24.30;88.90;;;;;;5094765;28;20525;-73
2022/06/12 08:22:04;;;;;;;3.40;2.53;;;24.50;85.20;;;;;;5094762;28;20298;-71
2022/06/12 08:24:31;;;;;;;4.38;2.80;;;24.70;85.70;;;;;;5094634;28;20260;-71
2022/06/12 08:26:58;;;;;;;4.47;3.13;;;24.80;86.20;;;;;;5094637;28;20200;-71
2022/06/12 08:29:25;;;;;;;4.82;2.72;;;24.70;82.90;;;;;;5094453;28;20597;-71
2022/06/12 08:31:58;;;;;;;4.68;2.92;;;24.50;83.50;;;;;;5094595;28;20250;-71
2022/06/12 08:34:27;;;;;;;4.47;3.10;;;24.70;85.70;;;;;;5094474;28;20727;-71
2022/06/12 08:36:56;;;;;;;3.33;2.90;;;25.20;81.90;;;;;;5094368;28;20273;-71
2022/06/12 08:39:22;;;;;;;4.75;2.53;;;25.60;81.20;;;;;;5094581;28;20200;-71
2022/06/12 08:41:55;;;;;;;4.90;2.78;;;25.50;73.60;;;;;;5094439;28;20201;-71
2022/06/12 08:44:30;;;;;;;3.88;2.50;;;25.60;72.10;;;;;;5094263;28;20753;-71
2022/06/12 08:47:02;;;;;;;3.78;2.92;;;25.80;71.50;;;;;;5094481;28;20256;-71
2022/06/12 08:49:35;;;;;;;5.38;2.47;;;26.00;73.10;;;;;;5094111;28;20240;-72
2022/06/12 08:52:10;;;;;;;4.03;3.00;;;26.30;73.10;;;;;;5094444;28;20201;-71
2022/06/12 08:54:41;;;;;;;4.88;2.60;;;26.10;71.40;;;;;;5094400;28;20599;-72
2022/06/12 08:57:14;;;;;;;3.70;2.60;;;26.20;70.20;;;;;;5094294;28;20249;-73
2022/06/12 08:59:44;;;;;;;2.72;2.45;;;26.30;67.80;;;;;;5094338;28;20196;-72
2022/06/12 09:02:21;;;;;;;4.28;2.55;;;26.10;66.00;;;;;;5094269;28;20197;-73
2022/06/12 09:04:48;;;;;;;4.38;2.83;;;26.30;64.40;;;;;;5094149;28;20676;-73
2022/06/12 09:07:19;;;;;;;5.32;2.55;;;26.40;65.20;;;;;;5094060;28;20197;-73
2022/06/12 09:09:52;;;;;;;3.78;2.53;;;26.70;66.20;;;;;;5093737;28;20257;-74
2022/06/12 09:12:24;;;;;;;3.20;2.58;;;26.10;63.30;;;;;;5093795;28;20705;-73
2022/06/12 09:15:02;;;;;;;4.60;2.53;;;26.00;60.70;;;;;;5094121;28;20204;-78
2022/06/12 09:17:40;;;;;;;3.80;2.40;;;25.50;61.80;;;;;;5093868;28;20554;-77
2022/06/12 09:20:12;;;;;;;4.13;2.53;;;25.90;62.70;;;;;;5094148;28;20253;-77
2022/06/12 09:22:54;;;;;;;4.53;2.67;;;25.90;61.40;;;;;;5093676;28;20216;-77
2022/06/12 09:25:27;;;;;;;5.20;2.53;;;26.30;59.70;;;;;;5093869;28;20200;-77
2022/06/12 09:28:02;;;;;;;3.90;2.50;;;26.80;59.40;;;;;;5093725;28;20200;-77
2022/06/12 09:30:37;;;;;;;4.13;2.50;;;27.10;57.20;;;;;;5075720;28;20196;-77
2022/06/12 09:33:13;;;;;;;4.40;2.80;;;27.30;56.50;;;;;;5093521;28;20200;-78
2022/06/12 09:35:51;;;;;;;4.28;2.60;;;27.60;54.80;;;;;;5093555;28;20720;-78
2022/06/12 09:38:30;;;;;;;4.32;2.38;;;27.70;53.60;;;;;;5093729;28;20254;-77
2022/06/12 09:41:07;;;;;;;4.00;2.42;;;27.00;55.00;;;;;;5093596;28;20200;-75
2022/06/12 09:43:39;;;;;;;6.05;2.80;;;27.20;55.40;;;;;;5093298;28;20227;-79
2022/06/12 09:46:15;;;;;;;3.88;2.30;;;26.90;54.30;;;;;;5093262;28;20741;-78
2022/06/12 09:49:03;;;;;;;4.20;2.50;;;26.50;55.10;;;;;;5093230;28;20289;-77
2022/06/12 09:52:02;;;;;;;4.18;2.50;;;27.00;56.30;;;;;;5093279;28;20200;-77
2022/06/12 09:54:45;;;;;;;6.03;2.65;;;26.70;53.70;;;;;;5072670;28;20246;-77
2022/06/12 09:57:21;;;;;;;2.83;2.60;;;27.40;54.50;;;;;;5093503;28;20237;-77
2022/06/12 09:59:56;;;;;;;3.33;2.28;;;27.40;53.10;;;;;;5093269;28;20206;-74
2022/06/12 10:02:29;;;;;;;3.97;2.15;;;27.80;49.30;;;;;;5091594;28;20196;-75
2022/06/12 10:05:04;;;;;;;2.90;2.33;;;28.80;48.30;;;;;;5066046;28;20942;-73
2022/06/12 10:07:38;;;;;;;3.45;2.30;;;28.70;47.00;;;;;;5089173;28;20200;-73
2022/06/12 10:10:12;;;;;;;4.07;2.53;;;28.90;45.50;;;;;;5090330;28;20204;-73
2022/06/12 10:12:43;;;;;;;2.97;2.50;;;28.20;45.90;;;;;;5090332;28;20713;-74
2022/06/12 10:15:12;;;;;;;4.55;2.30;;;27.90;47.20;;;;;;5089898;28;20659;-74
2022/06/12 10:17:45;;;;;;;2.75;2.22;;;28.20;46.00;;;;;;5090030;28;20204;-72
2022/06/12 10:20:16;;;;;;;4.35;2.40;;;28.60;45.40;;;;;;5090208;28;20208;-72
2022/06/12 10:22:45;;;;;;;3.92;2.58;;;27.90;44.40;;;;;;5089648;28;20287;-72
2022/06/12 10:25:18;;;;;;;7.65;2.50;;;27.30;47.00;;;;;;5090177;28;20208;-72
2022/06/12 10:27:51;;;;;;;5.28;2.60;;;28.40;46.80;;;;;;5090106;28;20261;-72
2022/06/12 10:30:29;;;;;;;3.47;2.28;;;28.70;44.50;;;;;;5090317;28;20594;-72
2022/06/12 10:32:58;;;;;;;3.53;2.25;;;29.80;43.30;;;;;;5090469;28;20206;-73
2022/06/12 10:35:27;;;;;;;4.22;2.38;;;29.70;41.60;;;;;;5090175;28;20196;-73
2022/06/12 10:38:06;;;;;;;4.07;2.20;;;29.70;41.60;;;;;;5089868;28;20247;-73
2022/06/12 10:40:34;;;;;;;4.25;2.53;;;30.00;40.50;;;;;;5090286;28;20204;-73
2022/06/12 10:43:05;;;;;;;3.28;2.25;;;29.30;39.70;;;;;;5089966;28;20272;-73
2022/06/12 10:45:35;;;;;;;4.63;1.98;;;30.20;39.90;;;;;;5090023;28;20733;-73
2022/06/12 10:48:04;;;;;;;2.83;1.95;;;30.90;36.00;;;;;;5089753;28;20242;-73
2022/06/12 10:50:34;;;;;;;3.05;2.08;;;30.50;35.60;;;;;;5090210;28;20233;-73
2022/06/12 10:53:03;;;;;;;4.95;2.15;;;31.10;33.40;;;;;;5091710;28;20238;-72
2022/06/12 10:55:54;;;;;;;3.28;2.10;;;32.50;33.20;;;;;;5100852;28;20210;-73
2022/06/12 10:58:53;;;;;;;2.83;2.30;;;32.10;30.10;;;;;;5090333;28;20655;-73
2022/06/12 11:01:28;;;;;;;3.05;2.08;;;32.20;30.70;;;;;;5075519;28;20245;-73
2022/06/12 11:04:04;;;;;;;2.65;2.10;;;31.90;30.90;;;;;;5092672;28;20215;-73
2022/06/12 11:06:42;;;;;;;4.20;2.25;;;32.70;30.00;;;;;;5092369;28;20191;-73
2022/06/12 11:09:30;;;;;;;5.00;2.20;;;32.10;30.80;;;;;;5089998;28;20347;-73
2022/06/12 11:12:28;;;;;;;4.07;2.20;;;31.00;31.70;;;;;;5091110;28;20208;-73
2022/06/12 11:15:19;;;;;;;3.53;2.10;;;30.90;31.60;;;;;;5093165;28;20200;-73
2022/06/12 11:17:59;;;;;;;3.15;1.98;;;31.50;31.10;;;;;;5092622;28;20196;-73
2022/06/12 11:20:35;;;;;;;2.97;2.00;;;30.70;30.40;;;;;;5092210;28;20199;-73
2022/06/12 11:23:20;;;;;;;2.55;2.17;;;30.80;29.00;;;;;;5092021;28;20228;-73
2022/06/12 11:26:02;;;;;;;2.38;1.90;;;30.90;29.80;;;;;;5091839;28;20197;-72
2022/06/12 11:28:41;;;;;;;2.15;1.98;;;31.20;28.80;;;;;;5092106;28;20254;-73
2022/06/12 11:31:24;;;;;;;2.45;1.98;;;31.60;28.70;;;;;;5091617;28;20585;-73
2022/06/12 11:34:00;;;;;;;3.00;2.00;;;33.20;27.90;;;;;;5094677;28;20226;-73
2022/06/12 11:36:33;;;;;;;2.53;2.00;;;34.00;25.60;;;;;;5095657;28;20248;-74
2022/06/12 11:39:18;;;;;;;4.50;1.95;;;34.20;25.00;;;;;;5095624;28;20196;-73
2022/06/12 11:41:59;;;;;;;2.83;2.35;;;33.10;24.00;;;;;;5095390;28;20621;-73
2022/06/12 11:44:49;;;;;;;2.20;1.83;;;31.30;26.40;;;;;;5095036;28;20219;-73
2022/06/12 11:47:26;;;;;;;3.90;2.38;;;31.70;26.70;;;;;;5095559;28;20200;-73
2022/06/12 11:50:00;;;;;;;4.03;2.00;;;31.10;27.20;;;;;;5095206;28;20294;-73
2022/06/12 11:52:46;;;;;;;3.05;1.73;;;31.70;27.50;;;;;;5095150;28;20606;-72
2022/06/12 11:55:28;;;;;;;2.28;1.65;;;32.70;25.00;;;;;;5090689;28;20226;-73
2022/06/12 11:58:03;;;;;;;5.93;2.08;;;33.30;23.70;;;;;;5094632;28;20256;-73
2022/06/12 12:00:37;;;;;;;2.13;1.92;;;33.70;22.40;;;;;;5095151;28;20195;-73
2022/06/12 12:03:39;;;;;;;3.20;1.80;;;33.10;22.60;;;;;;5095661;28;20195;-74
2022/06/12 12:06:18;;;;;;;2.47;1.90;;;32.50;23.50;;;;;;5064326;28;20200;-74
2022/06/12 12:08:57;;;;;;;2.35;1.83;;;32.00;23.80;;;;;;5095077;28;20196;-73
2022/06/12 12:11:30;;;;;;;5.05;2.20;;;31.90;24.00;;;;;;5095013;28;20200;-73
2022/06/12 12:14:01;;;;;;;2.28;2.08;;;31.70;24.40;;;;;;5095227;28;20208;-73
2022/06/12 12:16:34;;;;;;;2.95;1.92;;;33.00;24.00;;;;;;5094934;28;20648;-73
2022/06/12 12:19:06;;;;;;;2.50;1.88;;;32.60;22.40;;;;;;5095117;28;20200;-73
2022/06/12 12:21:39;;;;;;;3.35;1.90;;;34.50;21.80;;;;;;5094854;28;20738;-72
2022/06/12 12:24:09;;;;;;;2.88;1.83;;;35.90;21.10;;;;;;5094563;28;20281;-73
2022/06/12 12:26:40;;;;;;;3.22;1.92;;;34.60;18.90;;;;;;5094733;28;20196;-73
2022/06/12 12:29:12;;;;;;;4.70;2.13;;;35.00;19.60;;;;;;5094527;28;20261;-73
2022/06/12 12:31:40;;;;;;;2.10;1.90;;;33.80;20.50;;;;;;5094588;28;20196;-73
2022/06/12 12:34:09;;;;;;;3.28;1.70;;;34.00;19.40;;;;;;5094355;28;20320;-73
2022/06/12 12:42:25;;;;;;;2.10;1.73;;;35.40;19.00;;;;;;5074157;28;20200;-73
2022/06/12 12:44:53;;;;;;;2.28;2.00;;;34.80;19.80;;;;;;5073263;28;20243;-73
2022/06/12 12:47:22;;;;;;;2.20;2.00;;;33.10;21.10;;;;;;5073794;28;20200;-73
2022/06/12 12:49:51;;;;;;;2.45;1.80;;;32.40;22.40;;;;;;5073974;28;20196;-72
2022/06/12 12:52:22;;;;;;;2.92;2.13;;;33.80;21.60;;;;;;5073934;28;20199;-73
2022/06/12 12:54:52;;;;;;;2.70;1.92;;;34.50;20.20;;;;;;5074136;28;20533;-73
2022/06/12 12:57:33;;;;;;;3.03;1.83;;;36.10;19.80;;;;;;5073574;28;20254;-72
2022/06/12 12:59:59;;;;;;;3.92;1.80;;;35.20;17.80;;;;;;5073945;28;20647;-73
2022/06/12 13:02:30;;;;;;;3.10;1.95;;;33.20;19.10;;;;;;5073420;28;20690;-72
2022/06/12 13:04:59;;;;;;;2.42;2.08;;;31.20;19.40;;;;;;5073476;28;20225;-72
2022/06/12 13:07:50;;;;;;;1.90;1.80;;;30.60;20.10;;;;;;5072888;28;20197;-72
2022/06/12 13:10:40;;;;;;;2.30;1.90;;;32.40;20.00;;;;;;5073358;28;20258;-72
2022/06/12 13:13:26;;;;;;;3.75;1.60;;;34.60;18.10;;;;;;5073516;28;20197;-80
2022/06/12 13:15:58;;;;;;;1.92;1.67;;;33.80;15.90;;;;;;5073509;28;20672;-78
2022/06/12 13:18:39;;;;;;;2.03;1.80;;;33.50;17.50;;;;;;5073592;28;20200;-74
2022/06/12 13:21:18;;;;;;;2.25;1.88;;;34.00;17.70;;;;;;5073285;28;20253;-73
2022/06/12 13:24:03;;;;;;;3.75;1.85;;;34.00;17.50;;;;;;5073035;28;20254;-73
2022/06/12 13:26:34;;;;;;;1.98;1.60;;;34.10;17.40;;;;;;5073141;28;20200;-73